sensor_id;sensor_type;location;lat;lon;timestamp;P1;durP1;ratioP1;P2;durP2;ratioP2
15899;SDS011;8048;50.644;6.184;2023-11-18T00:02:25;7.33;;;6.47;;
15899;SDS011;8048;50.644;6.184;2023-11-18T00:04:51;6.30;;;5.37;;
15899;SDS011;8048;50.644;6.184;2023-11-18T00:07:16;9.27;;;7.10;;
15899;SDS011;8048;50.644;6.184;2023-11-18T00:09:42;8.83;;;7.73;;
15899;SDS011;8048;50.644;6.184;2023-11-18T00:12:10;10.00;;;7.80;;
15899;SDS011;8048;50.644;6.184;2023-11-18T00:14:36;8.80;;;7.53;;
15899;SDS011;8048;50.644;6.184;2023-11-18T00:17:02;12.20;;;7.50;;
15899;SDS011;8048;50.644;6.184;2023-11-18T00:19:29;12.40;;;7.40;;
15899;SDS011;8048;50.644;6.184;2023-11-18T00:21:54;8.13;;;7.10;;
15899;SDS011;8048;50.644;6.184;2023-11-18T00:24:20;12.57;;;6.53;;
15899;SDS011;8048;50.644;6.184;2023-11-18T00:26:46;10.77;;;7.60;;
15899;SDS011;8048;50.644;6.184;2023-11-18T00:29:11;9.50;;;6.47;;
15899;SDS011;8048;50.644;6.184;2023-11-18T00:31:37;7.70;;;6.40;;
15899;SDS011;8048;50.644;6.184;2023-11-18T00:34:03;8.60;;;7.27;;
15899;SDS011;8048;50.644;6.184;2023-11-18T00:36:29;7.40;;;6.70;;
15899;SDS011;8048;50.644;6.184;2023-11-18T00:38:54;9.13;;;6.47;;
15899;SDS011;8048;50.644;6.184;2023-11-18T00:41:20;8.93;;;6.97;;
15899;SDS011;8048;50.644;6.184;2023-11-18T00:43:46;10.10;;;6.40;;
15899;SDS011;8048;50.644;6.184;2023-11-18T00:46:12;10.30;;;7.50;;
15899;SDS011;8048;50.644;6.184;2023-11-18T00:48:37;7.57;;;6.70;;
15899;SDS011;8048;50.644;6.184;2023-11-18T00:51:03;6.13;;;5.30;;
15899;SDS011;8048;50.644;6.184;2023-11-18T00:53:30;7.63;;;6.20;;
15899;SDS011;8048;50.644;6.184;2023-11-18T00:55:56;9.10;;;6.70;;
15899;SDS011;8048;50.644;6.184;2023-11-18T00:58:21;8.10;;;5.60;;
15899;SDS011;8048;50.644;6.184;2023-11-18T01:00:47;7.67;;;5.97;;
15899;SDS011;8048;50.644;6.184;2023-11-18T01:03:12;6.13;;;4.90;;
15899;SDS011;8048;50.644;6.184;2023-11-18T01:05:38;8.63;;;5.40;;
15899;SDS011;8048;50.644;6.184;2023-11-18T01:08:04;5.50;;;5.00;;
15899;SDS011;8048;50.644;6.184;2023-11-18T01:10:30;5.73;;;5.03;;
15899;SDS011;8048;50.644;6.184;2023-11-18T01:12:56;6.97;;;5.00;;
15899;SDS011;8048;50.644;6.184;2023-11-18T01:15:22;6.53;;;5.07;;
15899;SDS011;8048;50.644;6.184;2023-11-18T01:17:48;6.30;;;5.70;;
15899;SDS011;8048;50.644;6.184;2023-11-18T01:20:14;9.63;;;6.47;;
15899;SDS011;8048;50.644;6.184;2023-11-18T01:22:45;7.73;;;5.80;;
15899;SDS011;8048;50.644;6.184;2023-11-18T01:25:12;11.23;;;6.20;;
15899;SDS011;8048;50.644;6.184;2023-11-18T01:27:37;12.63;;;5.93;;
15899;SDS011;8048;50.644;6.184;2023-11-18T01:30:03;7.50;;;5.83;;
15899;SDS011;8048;50.644;6.184;2023-11-18T01:32:29;8.40;;;5.60;;
15899;SDS011;8048;50.644;6.184;2023-11-18T01:34:55;6.97;;;4.90;;
15899;SDS011;8048;50.644;6.184;2023-11-18T01:37:21;6.37;;;5.77;;
15899;SDS011;8048;50.644;6.184;2023-11-18T01:39:48;7.60;;;5.40;;
15899;SDS011;8048;50.644;6.184;2023-11-18T01:42:13;5.23;;;4.73;;
15899;SDS011;8048;50.644;6.184;2023-11-18T01:44:40;7.57;;;6.30;;
15899;SDS011;8048;50.644;6.184;2023-11-18T01:47:06;5.20;;;4.70;;
15899;SDS011;8048;50.644;6.184;2023-11-18T01:49:35;6.00;;;4.90;;
15899;SDS011;8048;50.644;6.184;2023-11-18T01:52:05;6.67;;;5.47;;
15899;SDS011;8048;50.644;6.184;2023-11-18T01:54:32;6.60;;;5.47;;
15899;SDS011;8048;50.644;6.184;2023-11-18T01:56:59;6.50;;;5.33;;
15899;SDS011;8048;50.644;6.184;2023-11-18T01:59:28;8.33;;;5.47;;
15899;SDS011;8048;50.644;6.184;2023-11-18T02:01:55;10.17;;;5.43;;
15899;SDS011;8048;50.644;6.184;2023-11-18T02:04:24;6.10;;;5.50;;
15899;SDS011;8048;50.644;6.184;2023-11-18T02:06:50;8.00;;;6.00;;
15899;SDS011;8048;50.644;6.184;2023-11-18T02:09:17;8.50;;;5.90;;
15899;SDS011;8048;50.644;6.184;2023-11-18T02:11:54;6.07;;;5.53;;
15899;SDS011;8048;50.644;6.184;2023-11-18T02:14:31;7.27;;;5.67;;
15899;SDS011;8048;50.644;6.184;2023-11-18T02:16:59;6.90;;;5.60;;
15899;SDS011;8048;50.644;6.184;2023-11-18T02:19:27;7.80;;;6.93;;
15899;SDS011;8048;50.644;6.184;2023-11-18T02:21:55;8.33;;;5.83;;
15899;SDS011;8048;50.644;6.184;2023-11-18T02:24:28;6.50;;;5.53;;
15899;SDS011;8048;50.644;6.184;2023-11-18T02:27:01;5.47;;;4.97;;
15899;SDS011;8048;50.644;6.184;2023-11-18T02:29:35;8.00;;;5.40;;
15899;SDS011;8048;50.644;6.184;2023-11-18T02:32:04;10.97;;;6.90;;
15899;SDS011;8048;50.644;6.184;2023-11-18T02:34:33;5.77;;;5.07;;
15899;SDS011;8048;50.644;6.184;2023-11-18T02:37:01;7.33;;;4.83;;
15899;SDS011;8048;50.644;6.184;2023-11-18T02:39:39;9.80;;;5.50;;
15899;SDS011;8048;50.644;6.184;2023-11-18T02:42:07;5.90;;;5.20;;
15899;SDS011;8048;50.644;6.184;2023-11-18T02:44:35;10.00;;;7.30;;
15899;SDS011;8048;50.644;6.184;2023-11-18T02:47:01;8.57;;;6.47;;
15899;SDS011;8048;50.644;6.184;2023-11-18T02:49:27;6.50;;;5.20;;
15899;SDS011;8048;50.644;6.184;2023-11-18T02:51:54;9.30;;;5.53;;
15899;SDS011;8048;50.644;6.184;2023-11-18T02:54:20;8.47;;;6.73;;
15899;SDS011;8048;50.644;6.184;2023-11-18T02:56:46;6.37;;;5.67;;
15899;SDS011;8048;50.644;6.184;2023-11-18T02:59:12;7.50;;;5.50;;
15899;SDS011;8048;50.644;6.184;2023-11-18T03:01:38;6.13;;;5.63;;
15899;SDS011;8048;50.644;6.184;2023-11-18T03:04:06;6.53;;;4.70;;
15899;SDS011;8048;50.644;6.184;2023-11-18T03:06:32;5.63;;;5.13;;
15899;SDS011;8048;50.644;6.184;2023-11-18T03:08:57;10.53;;;6.53;;
15899;SDS011;8048;50.644;6.184;2023-11-18T03:11:23;6.93;;;5.30;;
15899;SDS011;8048;50.644;6.184;2023-11-18T03:13:49;5.73;;;5.23;;
15899;SDS011;8048;50.644;6.184;2023-11-18T03:16:15;6.90;;;5.83;;
15899;SDS011;8048;50.644;6.184;2023-11-18T03:18:42;4.90;;;4.37;;
15899;SDS011;8048;50.644;6.184;2023-11-18T03:21:11;6.40;;;4.63;;
15899;SDS011;8048;50.644;6.184;2023-11-18T03:23:40;5.40;;;4.30;;
15899;SDS011;8048;50.644;6.184;2023-11-18T03:26:07;6.07;;;4.70;;
15899;SDS011;8048;50.644;6.184;2023-11-18T03:28:33;5.33;;;4.60;;
15899;SDS011;8048;50.644;6.184;2023-11-18T03:30:59;7.57;;;4.83;;
15899;SDS011;8048;50.644;6.184;2023-11-18T03:33:24;4.70;;;3.57;;
15899;SDS011;8048;50.644;6.184;2023-11-18T03:35:50;4.97;;;4.40;;
15899;SDS011;8048;50.644;6.184;2023-11-18T03:38:16;4.57;;;4.17;;
15899;SDS011;8048;50.644;6.184;2023-11-18T03:40:44;5.93;;;4.00;;
15899;SDS011;8048;50.644;6.184;2023-11-18T03:43:10;4.57;;;4.17;;
15899;SDS011;8048;50.644;6.184;2023-11-18T03:45:38;6.83;;;3.43;;
15899;SDS011;8048;50.644;6.184;2023-11-18T03:48:04;4.20;;;3.80;;
15899;SDS011;8048;50.644;6.184;2023-11-18T03:50:31;6.70;;;3.93;;
15899;SDS011;8048;50.644;6.184;2023-11-18T03:52:57;3.40;;;3.10;;
15899;SDS011;8048;50.644;6.184;2023-11-18T03:55:23;3.47;;;2.80;;
15899;SDS011;8048;50.644;6.184;2023-11-18T03:57:50;5.53;;;4.03;;
15899;SDS011;8048;50.644;6.184;2023-11-18T04:00:16;4.77;;;3.50;;
15899;SDS011;8048;50.644;6.184;2023-11-18T04:02:41;3.93;;;3.27;;
15899;SDS011;8048;50.644;6.184;2023-11-18T04:05:07;6.37;;;3.67;;
15899;SDS011;8048;50.644;6.184;2023-11-18T04:07:33;4.37;;;3.90;;
15899;SDS011;8048;50.644;6.184;2023-11-18T04:09:59;6.33;;;3.70;;
15899;SDS011;8048;50.644;6.184;2023-11-18T04:12:25;7.67;;;4.20;;
15899;SDS011;8048;50.644;6.184;2023-11-18T04:14:51;4.07;;;3.40;;
15899;SDS011;8048;50.644;6.184;2023-11-18T04:17:18;5.43;;;4.67;;
15899;SDS011;8048;50.644;6.184;2023-11-18T04:19:43;5.83;;;2.93;;
15899;SDS011;8048;50.644;6.184;2023-11-18T04:22:10;4.53;;;3.90;;
15899;SDS011;8048;50.644;6.184;2023-11-18T04:24:35;4.83;;;4.43;;
15899;SDS011;8048;50.644;6.184;2023-11-18T04:27:01;5.60;;;4.20;;
15899;SDS011;8048;50.644;6.184;2023-11-18T04:29:27;4.03;;;3.60;;
15899;SDS011;8048;50.644;6.184;2023-11-18T04:31:52;3.50;;;3.07;;
15899;SDS011;8048;50.644;6.184;2023-11-18T04:34:18;4.30;;;3.30;;
15899;SDS011;8048;50.644;6.184;2023-11-18T04:36:44;4.20;;;3.50;;
15899;SDS011;8048;50.644;6.184;2023-11-18T04:39:10;4.27;;;3.87;;
15899;SDS011;8048;50.644;6.184;2023-11-18T04:41:40;4.20;;;2.70;;
15899;SDS011;8048;50.644;6.184;2023-11-18T04:44:06;4.17;;;3.77;;
15899;SDS011;8048;50.644;6.184;2023-11-18T04:46:34;5.63;;;4.07;;
15899;SDS011;8048;50.644;6.184;2023-11-18T04:49:01;4.27;;;3.53;;
15899;SDS011;8048;50.644;6.184;2023-11-18T04:51:27;4.27;;;3.50;;
15899;SDS011;8048;50.644;6.184;2023-11-18T04:53:52;3.63;;;2.60;;
15899;SDS011;8048;50.644;6.184;2023-11-18T04:56:18;3.70;;;3.33;;
15899;SDS011;8048;50.644;6.184;2023-11-18T04:58:44;5.90;;;2.63;;
15899;SDS011;8048;50.644;6.184;2023-11-18T05:01:12;7.20;;;3.60;;
15899;SDS011;8048;50.644;6.184;2023-11-18T05:03:38;4.03;;;3.17;;
15899;SDS011;8048;50.644;6.184;2023-11-18T05:06:04;5.07;;;2.63;;
15899;SDS011;8048;50.644;6.184;2023-11-18T05:08:30;3.33;;;3.03;;
15899;SDS011;8048;50.644;6.184;2023-11-18T05:10:58;2.93;;;2.63;;
15899;SDS011;8048;50.644;6.184;2023-11-18T05:13:24;4.40;;;2.67;;
15899;SDS011;8048;50.644;6.184;2023-11-18T05:15:51;3.27;;;2.97;;
15899;SDS011;8048;50.644;6.184;2023-11-18T05:18:19;6.53;;;2.53;;
15899;SDS011;8048;50.644;6.184;2023-11-18T05:20:44;2.83;;;2.63;;
15899;SDS011;8048;50.644;6.184;2023-11-18T05:23:11;3.30;;;3.00;;
15899;SDS011;8048;50.644;6.184;2023-11-18T05:25:42;2.83;;;2.63;;
15899;SDS011;8048;50.644;6.184;2023-11-18T05:28:10;3.90;;;2.50;;
15899;SDS011;8048;50.644;6.184;2023-11-18T05:30:36;1.80;;;1.70;;
15899;SDS011;8048;50.644;6.184;2023-11-18T05:33:05;7.40;;;3.00;;
15899;SDS011;8048;50.644;6.184;2023-11-18T05:35:31;4.20;;;2.63;;
15899;SDS011;8048;50.644;6.184;2023-11-18T05:37:58;4.30;;;2.73;;
15899;SDS011;8048;50.644;6.184;2023-11-18T05:40:24;9.20;;;3.13;;
15899;SDS011;8048;50.644;6.184;2023-11-18T05:42:51;6.70;;;3.73;;
15899;SDS011;8048;50.644;6.184;2023-11-18T05:45:17;2.70;;;2.50;;
15899;SDS011;8048;50.644;6.184;2023-11-18T05:47:55;2.70;;;2.50;;
15899;SDS011;8048;50.644;6.184;2023-11-18T05:50:22;2.50;;;2.40;;
15899;SDS011;8048;50.644;6.184;2023-11-18T05:52:49;3.23;;;2.93;;
15899;SDS011;8048;50.644;6.184;2023-11-18T05:55:15;3.50;;;2.40;;
15899;SDS011;8048;50.644;6.184;2023-11-18T05:57:41;3.77;;;2.70;;
15899;SDS011;8048;50.644;6.184;2023-11-18T06:00:10;3.73;;;3.20;;
15899;SDS011;8048;50.644;6.184;2023-11-18T06:02:44;5.20;;;3.20;;
15899;SDS011;8048;50.644;6.184;2023-11-18T06:05:10;4.37;;;3.80;;
15899;SDS011;8048;50.644;6.184;2023-11-18T06:07:37;3.87;;;3.47;;
15899;SDS011;8048;50.644;6.184;2023-11-18T06:10:05;4.57;;;3.40;;
15899;SDS011;8048;50.644;6.184;2023-11-18T06:12:31;3.60;;;2.83;;
15899;SDS011;8048;50.644;6.184;2023-11-18T06:14:58;8.83;;;3.27;;
15899;SDS011;8048;50.644;6.184;2023-11-18T06:17:24;4.33;;;3.03;;
15899;SDS011;8048;50.644;6.184;2023-11-18T06:19:49;4.00;;;3.40;;
15899;SDS011;8048;50.644;6.184;2023-11-18T06:22:15;3.27;;;2.80;;
15899;SDS011;8048;50.644;6.184;2023-11-18T06:24:40;2.50;;;2.30;;
15899;SDS011;8048;50.644;6.184;2023-11-18T06:27:06;4.30;;;2.60;;
15899;SDS011;8048;50.644;6.184;2023-11-18T06:29:33;3.63;;;3.00;;
15899;SDS011;8048;50.644;6.184;2023-11-18T06:31:59;3.50;;;3.20;;
15899;SDS011;8048;50.644;6.184;2023-11-18T06:34:25;10.63;;;3.30;;
15899;SDS011;8048;50.644;6.184;2023-11-18T06:36:52;3.80;;;2.87;;
15899;SDS011;8048;50.644;6.184;2023-11-18T06:39:17;2.97;;;2.60;;
15899;SDS011;8048;50.644;6.184;2023-11-18T06:41:44;3.40;;;2.63;;
15899;SDS011;8048;50.644;6.184;2023-11-18T06:44:15;8.47;;;2.87;;
15899;SDS011;8048;50.644;6.184;2023-11-18T06:46:47;12.33;;;3.00;;
15899;SDS011;8048;50.644;6.184;2023-11-18T06:49:15;4.13;;;2.77;;
15899;SDS011;8048;50.644;6.184;2023-11-18T06:51:41;7.90;;;3.27;;
15899;SDS011;8048;50.644;6.184;2023-11-18T06:54:07;4.70;;;3.23;;
15899;SDS011;8048;50.644;6.184;2023-11-18T06:56:41;2.57;;;2.37;;
15899;SDS011;8048;50.644;6.184;2023-11-18T06:59:08;4.20;;;3.90;;
15899;SDS011;8048;50.644;6.184;2023-11-18T07:01:40;4.60;;;3.30;;
15899;SDS011;8048;50.644;6.184;2023-11-18T07:04:07;6.93;;;3.90;;
15899;SDS011;8048;50.644;6.184;2023-11-18T07:06:36;10.83;;;3.83;;
15899;SDS011;8048;50.644;6.184;2023-11-18T07:09:03;3.93;;;3.53;;
15899;SDS011;8048;50.644;6.184;2023-11-18T07:11:39;4.03;;;3.17;;
15899;SDS011;8048;50.644;6.184;2023-11-18T07:14:06;5.60;;;3.67;;
15899;SDS011;8048;50.644;6.184;2023-11-18T07:16:34;7.17;;;3.97;;
15899;SDS011;8048;50.644;6.184;2023-11-18T07:19:00;6.63;;;3.57;;
15899;SDS011;8048;50.644;6.184;2023-11-18T07:21:25;4.10;;;3.80;;
15899;SDS011;8048;50.644;6.184;2023-11-18T07:23:51;3.83;;;3.10;;
15899;SDS011;8048;50.644;6.184;2023-11-18T07:26:16;6.63;;;3.70;;
15899;SDS011;8048;50.644;6.184;2023-11-18T07:28:42;6.20;;;3.40;;
15899;SDS011;8048;50.644;6.184;2023-11-18T07:31:09;4.40;;;3.57;;
15899;SDS011;8048;50.644;6.184;2023-11-18T07:33:34;11.43;;;3.70;;
15899;SDS011;8048;50.644;6.184;2023-11-18T07:36:00;5.30;;;2.83;;
15899;SDS011;8048;50.644;6.184;2023-11-18T07:38:27;3.63;;;3.33;;
15899;SDS011;8048;50.644;6.184;2023-11-18T07:40:54;3.60;;;3.20;;
15899;SDS011;8048;50.644;6.184;2023-11-18T07:43:21;3.30;;;3.00;;
15899;SDS011;8048;50.644;6.184;2023-11-18T07:45:48;3.37;;;3.00;;
15899;SDS011;8048;50.644;6.184;2023-11-18T07:48:18;3.90;;;3.50;;
15899;SDS011;8048;50.644;6.184;2023-11-18T07:50:45;4.67;;;2.90;;
15899;SDS011;8048;50.644;6.184;2023-11-18T07:53:14;10.50;;;4.20;;
15899;SDS011;8048;50.644;6.184;2023-11-18T07:55:40;4.93;;;3.60;;
15899;SDS011;8048;50.644;6.184;2023-11-18T07:58:07;5.07;;;3.50;;
15899;SDS011;8048;50.644;6.184;2023-11-18T08:00:39;8.03;;;3.60;;
15899;SDS011;8048;50.644;6.184;2023-11-18T08:03:06;3.40;;;2.53;;
15899;SDS011;8048;50.644;6.184;2023-11-18T08:05:36;3.70;;;3.20;;
15899;SDS011;8048;50.644;6.184;2023-11-18T08:08:02;3.50;;;3.20;;
15899;SDS011;8048;50.644;6.184;2023-11-18T08:10:28;4.97;;;3.27;;
15899;SDS011;8048;50.644;6.184;2023-11-18T08:12:57;6.87;;;3.40;;
15899;SDS011;8048;50.644;6.184;2023-11-18T08:15:23;6.70;;;2.60;;
15899;SDS011;8048;50.644;6.184;2023-11-18T08:17:51;3.13;;;2.70;;
15899;SDS011;8048;50.644;6.184;2023-11-18T08:20:17;3.23;;;2.93;;
15899;SDS011;8048;50.644;6.184;2023-11-18T08:22:43;5.87;;;2.97;;
15899;SDS011;8048;50.644;6.184;2023-11-18T08:25:09;7.13;;;3.50;;
15899;SDS011;8048;50.644;6.184;2023-11-18T08:27:37;3.90;;;3.60;;
15899;SDS011;8048;50.644;6.184;2023-11-18T08:30:04;3.03;;;2.80;;
15899;SDS011;8048;50.644;6.184;2023-11-18T08:32:36;4.37;;;3.37;;
15899;SDS011;8048;50.644;6.184;2023-11-18T08:35:09;4.60;;;3.17;;
15899;SDS011;8048;50.644;6.184;2023-11-18T08:37:35;3.80;;;2.90;;
15899;SDS011;8048;50.644;6.184;2023-11-18T08:40:04;4.40;;;2.73;;
15899;SDS011;8048;50.644;6.184;2023-11-18T08:42:31;2.87;;;2.67;;
15899;SDS011;8048;50.644;6.184;2023-11-18T08:44:58;3.17;;;2.97;;
15899;SDS011;8048;50.644;6.184;2023-11-18T08:47:25;6.13;;;2.70;;
15899;SDS011;8048;50.644;6.184;2023-11-18T08:49:51;6.90;;;3.17;;
15899;SDS011;8048;50.644;6.184;2023-11-18T08:52:17;4.77;;;2.80;;
15899;SDS011;8048;50.644;6.184;2023-11-18T08:54:43;6.17;;;3.70;;
15899;SDS011;8048;50.644;6.184;2023-11-18T08:57:28;5.43;;;3.80;;
15899;SDS011;8048;50.644;6.184;2023-11-18T09:00:13;3.60;;;2.50;;
15899;SDS011;8048;50.644;6.184;2023-11-18T09:03:01;3.73;;;3.10;;
15899;SDS011;8048;50.644;6.184;2023-11-18T09:05:27;3.50;;;3.10;;
15899;SDS011;8048;50.644;6.184;2023-11-18T09:07:57;3.70;;;3.03;;
15899;SDS011;8048;50.644;6.184;2023-11-18T09:10:25;4.67;;;4.17;;
15899;SDS011;8048;50.644;6.184;2023-11-18T09:12:53;3.23;;;2.93;;
15899;SDS011;8048;50.644;6.184;2023-11-18T09:15:19;3.90;;;3.60;;
15899;SDS011;8048;50.644;6.184;2023-11-18T09:17:47;5.27;;;3.90;;
15899;SDS011;8048;50.644;6.184;2023-11-18T09:20:14;4.00;;;3.53;;
15899;SDS011;8048;50.644;6.184;2023-11-18T09:22:45;4.00;;;3.00;;
15899;SDS011;8048;50.644;6.184;2023-11-18T09:25:11;2.80;;;2.60;;
15899;SDS011;8048;50.644;6.184;2023-11-18T09:27:36;6.27;;;3.00;;
15899;SDS011;8048;50.644;6.184;2023-11-18T09:30:04;4.23;;;2.57;;
15899;SDS011;8048;50.644;6.184;2023-11-18T09:32:38;6.43;;;2.70;;
15899;SDS011;8048;50.644;6.184;2023-11-18T09:35:10;3.70;;;2.73;;
15899;SDS011;8048;50.644;6.184;2023-11-18T09:37:38;3.20;;;2.80;;
15899;SDS011;8048;50.644;6.184;2023-11-18T09:40:03;4.00;;;2.50;;
15899;SDS011;8048;50.644;6.184;2023-11-18T09:42:36;8.83;;;2.53;;
15899;SDS011;8048;50.644;6.184;2023-11-18T09:45:04;7.30;;;3.30;;
15899;SDS011;8048;50.644;6.184;2023-11-18T09:47:32;2.93;;;2.60;;
15899;SDS011;8048;50.644;6.184;2023-11-18T09:50:05;5.53;;;2.90;;
15899;SDS011;8048;50.644;6.184;2023-11-18T09:52:35;4.00;;;2.27;;
15899;SDS011;8048;50.644;6.184;2023-11-18T09:55:10;3.13;;;2.57;;
15899;SDS011;8048;50.644;6.184;2023-11-18T09:57:44;4.43;;;2.60;;
15899;SDS011;8048;50.644;6.184;2023-11-18T10:00:22;3.23;;;2.73;;
15899;SDS011;8048;50.644;6.184;2023-11-18T10:02:57;6.40;;;2.77;;
15899;SDS011;8048;50.644;6.184;2023-11-18T10:05:25;3.23;;;2.67;;
15899;SDS011;8048;50.644;6.184;2023-11-18T10:07:52;3.00;;;2.77;;
15899;SDS011;8048;50.644;6.184;2023-11-18T10:10:18;6.37;;;3.13;;
15899;SDS011;8048;50.644;6.184;2023-11-18T10:12:46;8.93;;;2.80;;
15899;SDS011;8048;50.644;6.184;2023-11-18T10:15:23;4.43;;;3.07;;
15899;SDS011;8048;50.644;6.184;2023-11-18T10:17:50;4.80;;;2.80;;
15899;SDS011;8048;50.644;6.184;2023-11-18T10:23:10;3.07;;;2.77;;
15899;SDS011;8048;50.644;6.184;2023-11-18T10:25:46;5.67;;;3.07;;
15899;SDS011;8048;50.644;6.184;2023-11-18T10:30:52;2.57;;;2.37;;
15899;SDS011;8048;50.644;6.184;2023-11-18T10:36:06;2.40;;;2.20;;
15899;SDS011;8048;50.644;6.184;2023-11-18T10:38:47;3.73;;;2.60;;
15899;SDS011;8048;50.644;6.184;2023-11-18T10:41:15;2.30;;;2.07;;
15899;SDS011;8048;50.644;6.184;2023-11-18T10:43:43;3.10;;;2.60;;
15899;SDS011;8048;50.644;6.184;2023-11-18T10:46:15;3.07;;;2.80;;
15899;SDS011;8048;50.644;6.184;2023-11-18T10:48:45;4.20;;;2.63;;
15899;SDS011;8048;50.644;6.184;2023-11-18T10:51:18;4.10;;;2.30;;
15899;SDS011;8048;50.644;6.184;2023-11-18T10:53:48;2.70;;;2.37;;
15899;SDS011;8048;50.644;6.184;2023-11-18T10:56:24;2.53;;;2.20;;
15899;SDS011;8048;50.644;6.184;2023-11-18T10:58:57;1.77;;;1.67;;
15899;SDS011;8048;50.644;6.184;2023-11-18T11:03:58;2.13;;;1.90;;
15899;SDS011;8048;50.644;6.184;2023-11-18T11:06:25;2.20;;;2.00;;
15899;SDS011;8048;50.644;6.184;2023-11-18T11:08:51;2.47;;;2.27;;
15899;SDS011;8048;50.644;6.184;2023-11-18T11:11:20;2.80;;;2.70;;
15899;SDS011;8048;50.644;6.184;2023-11-18T11:13:49;3.37;;;2.00;;
15899;SDS011;8048;50.644;6.184;2023-11-18T11:16:19;2.73;;;2.13;;
15899;SDS011;8048;50.644;6.184;2023-11-18T11:18:52;1.83;;;1.73;;
15899;SDS011;8048;50.644;6.184;2023-11-18T11:21:20;9.93;;;2.53;;
15899;SDS011;8048;50.644;6.184;2023-11-18T11:23:53;3.10;;;2.27;;
15899;SDS011;8048;50.644;6.184;2023-11-18T11:29:25;2.50;;;1.83;;
15899;SDS011;8048;50.644;6.184;2023-11-18T11:32:02;1.80;;;1.63;;
15899;SDS011;8048;50.644;6.184;2023-11-18T11:34:50;6.90;;;2.00;;
15899;SDS011;8048;50.644;6.184;2023-11-18T11:37:18;2.90;;;1.73;;
15899;SDS011;8048;50.644;6.184;2023-11-18T11:39:48;2.30;;;2.10;;
15899;SDS011;8048;50.644;6.184;2023-11-18T11:42:18;1.50;;;1.40;;
15899;SDS011;8048;50.644;6.184;2023-11-18T11:44:46;2.30;;;1.80;;
15899;SDS011;8048;50.644;6.184;2023-11-18T11:47:13;2.27;;;1.50;;
15899;SDS011;8048;50.644;6.184;2023-11-18T11:49:45;1.70;;;1.60;;
15899;SDS011;8048;50.644;6.184;2023-11-18T11:52:28;7.20;;;2.77;;
15899;SDS011;8048;50.644;6.184;2023-11-18T11:55:07;1.57;;;1.47;;
15899;SDS011;8048;50.644;6.184;2023-11-18T11:57:40;2.20;;;1.90;;
15899;SDS011;8048;50.644;6.184;2023-11-18T12:00:10;1.70;;;1.60;;
15899;SDS011;8048;50.644;6.184;2023-11-18T12:02:48;2.70;;;1.20;;
15899;SDS011;8048;50.644;6.184;2023-11-18T12:05:17;1.40;;;1.17;;
15899;SDS011;8048;50.644;6.184;2023-11-18T12:07:50;3.33;;;1.63;;
15899;SDS011;8048;50.644;6.184;2023-11-18T12:10:17;1.17;;;1.17;;
15899;SDS011;8048;50.644;6.184;2023-11-18T12:12:46;1.53;;;1.43;;
15899;SDS011;8048;50.644;6.184;2023-11-18T12:15:13;1.63;;;1.53;;
15899;SDS011;8048;50.644;6.184;2023-11-18T12:23:26;1.57;;;1.47;;
15899;SDS011;8048;50.644;6.184;2023-11-18T12:25:52;1.53;;;1.43;;
15899;SDS011;8048;50.644;6.184;2023-11-18T12:30:52;1.60;;;1.50;;
15899;SDS011;8048;50.644;6.184;2023-11-18T12:33:25;3.33;;;1.57;;
15899;SDS011;8048;50.644;6.184;2023-11-18T12:41:39;1.10;;;1.10;;
15899;SDS011;8048;50.644;6.184;2023-11-18T12:46:52;1.20;;;1.20;;
15899;SDS011;8048;50.644;6.184;2023-11-18T12:49:20;1.47;;;1.37;;
15899;SDS011;8048;50.644;6.184;2023-11-18T12:51:50;1.53;;;1.43;;
15899;SDS011;8048;50.644;6.184;2023-11-18T12:54:24;1.80;;;1.30;;
15899;SDS011;8048;50.644;6.184;2023-11-18T12:56:52;1.47;;;1.33;;
15899;SDS011;8048;50.644;6.184;2023-11-18T12:59:19;1.33;;;1.23;;
15899;SDS011;8048;50.644;6.184;2023-11-18T13:01:51;3.77;;;1.30;;
15899;SDS011;8048;50.644;6.184;2023-11-18T13:04:23;1.30;;;1.10;;
15899;SDS011;8048;50.644;6.184;2023-11-18T13:06:49;1.17;;;1.17;;
15899;SDS011;8048;50.644;6.184;2023-11-18T13:09:19;1.20;;;1.10;;
15899;SDS011;8048;50.644;6.184;2023-11-18T13:11:59;1.07;;;1.07;;
15899;SDS011;8048;50.644;6.184;2023-11-18T13:14:29;1.20;;;1.20;;
15899;SDS011;8048;50.644;6.184;2023-11-18T13:17:10;1.67;;;1.57;;
15899;SDS011;8048;50.644;6.184;2023-11-18T13:19:43;1.20;;;1.20;;
15899;SDS011;8048;50.644;6.184;2023-11-18T13:22:10;1.73;;;1.63;;
15899;SDS011;8048;50.644;6.184;2023-11-18T13:24:39;2.30;;;1.27;;
15899;SDS011;8048;50.644;6.184;2023-11-18T13:27:09;1.23;;;1.23;;
15899;SDS011;8048;50.644;6.184;2023-11-18T13:29:36;1.20;;;1.20;;
15899;SDS011;8048;50.644;6.184;2023-11-18T13:32:04;1.00;;;1.00;;
15899;SDS011;8048;50.644;6.184;2023-11-18T13:34:32;1.40;;;1.30;;
15899;SDS011;8048;50.644;6.184;2023-11-18T13:37:03;2.13;;;1.40;;
15899;SDS011;8048;50.644;6.184;2023-11-18T13:39:31;1.10;;;1.10;;
15899;SDS011;8048;50.644;6.184;2023-11-18T13:41:56;1.20;;;1.20;;
15899;SDS011;8048;50.644;6.184;2023-11-18T13:44:32;1.23;;;1.23;;
15899;SDS011;8048;50.644;6.184;2023-11-18T13:47:01;1.07;;;1.07;;
15899;SDS011;8048;50.644;6.184;2023-11-18T13:49:28;1.27;;;1.20;;
15899;SDS011;8048;50.644;6.184;2023-11-18T13:51:54;1.20;;;1.20;;
15899;SDS011;8048;50.644;6.184;2023-11-18T13:54:21;1.00;;;1.00;;
15899;SDS011;8048;50.644;6.184;2023-11-18T13:56:47;1.30;;;1.30;;
15899;SDS011;8048;50.644;6.184;2023-11-18T13:59:14;1.63;;;1.53;;
15899;SDS011;8048;50.644;6.184;2023-11-18T14:01:40;1.00;;;1.00;;
15899;SDS011;8048;50.644;6.184;2023-11-18T14:04:06;3.63;;;3.37;;
15899;SDS011;8048;50.644;6.184;2023-11-18T14:06:33;1.03;;;1.03;;
15899;SDS011;8048;50.644;6.184;2023-11-18T14:09:00;1.27;;;1.20;;
15899;SDS011;8048;50.644;6.184;2023-11-18T14:11:26;1.10;;;1.10;;
15899;SDS011;8048;50.644;6.184;2023-11-18T14:13:51;0.93;;;0.93;;
15899;SDS011;8048;50.644;6.184;2023-11-18T14:16:18;1.40;;;0.90;;
15899;SDS011;8048;50.644;6.184;2023-11-18T14:18:46;1.30;;;1.20;;
15899;SDS011;8048;50.644;6.184;2023-11-18T14:21:12;1.00;;;1.00;;
15899;SDS011;8048;50.644;6.184;2023-11-18T14:23:39;1.10;;;1.00;;
15899;SDS011;8048;50.644;6.184;2023-11-18T14:26:05;0.70;;;0.70;;
15899;SDS011;8048;50.644;6.184;2023-11-18T14:28:32;0.97;;;0.97;;
15899;SDS011;8048;50.644;6.184;2023-11-18T14:30:59;1.23;;;1.13;;
15899;SDS011;8048;50.644;6.184;2023-11-18T14:33:26;1.30;;;1.20;;
15899;SDS011;8048;50.644;6.184;2023-11-18T14:35:53;1.00;;;1.00;;
15899;SDS011;8048;50.644;6.184;2023-11-18T14:38:18;1.43;;;1.33;;
15899;SDS011;8048;50.644;6.184;2023-11-18T14:40:45;1.00;;;1.00;;
15899;SDS011;8048;50.644;6.184;2023-11-18T14:43:13;1.47;;;1.37;;
15899;SDS011;8048;50.644;6.184;2023-11-18T14:45:39;0.80;;;0.80;;
15899;SDS011;8048;50.644;6.184;2023-11-18T14:48:05;0.90;;;0.90;;
15899;SDS011;8048;50.644;6.184;2023-11-18T14:50:31;0.90;;;0.90;;
15899;SDS011;8048;50.644;6.184;2023-11-18T14:52:56;0.80;;;0.80;;
15899;SDS011;8048;50.644;6.184;2023-11-18T14:55:25;0.77;;;0.77;;
15899;SDS011;8048;50.644;6.184;2023-11-18T14:57:51;1.10;;;1.00;;
15899;SDS011;8048;50.644;6.184;2023-11-18T15:00:17;0.93;;;0.93;;
15899;SDS011;8048;50.644;6.184;2023-11-18T15:02:56;1.00;;;1.00;;
15899;SDS011;8048;50.644;6.184;2023-11-18T15:05:22;1.00;;;1.00;;
15899;SDS011;8048;50.644;6.184;2023-11-18T15:07:51;1.20;;;1.20;;
15899;SDS011;8048;50.644;6.184;2023-11-18T15:10:18;1.00;;;1.00;;
15899;SDS011;8048;50.644;6.184;2023-11-18T15:13:06;0.97;;;0.97;;
15899;SDS011;8048;50.644;6.184;2023-11-18T15:15:31;1.10;;;1.10;;
15899;SDS011;8048;50.644;6.184;2023-11-18T15:17:57;0.80;;;0.80;;
15899;SDS011;8048;50.644;6.184;2023-11-18T15:20:24;1.00;;;1.00;;
15899;SDS011;8048;50.644;6.184;2023-11-18T15:22:50;1.77;;;1.50;;
15899;SDS011;8048;50.644;6.184;2023-11-18T15:25:16;1.07;;;1.07;;
15899;SDS011;8048;50.644;6.184;2023-11-18T15:27:45;7.53;;;6.00;;
15899;SDS011;8048;50.644;6.184;2023-11-18T15:30:14;4.97;;;3.10;;
15899;SDS011;8048;50.644;6.184;2023-11-18T15:32:42;0.80;;;0.80;;
15899;SDS011;8048;50.644;6.184;2023-11-18T15:35:09;1.10;;;1.10;;
15899;SDS011;8048;50.644;6.184;2023-11-18T15:37:41;0.90;;;0.90;;